Time;durP1;ratioP1;P1;durP2;ratioP2;P2;SDS_P1;SDS_P2;PMS_P1;PMS_P2;Temp;Humidity;BMP_temperature;BMP_pressure;BME280_temperature;BME280_humidity;BME280_pressure;Samples;Min_cycle;Max_cycle;Signal;HPM_P1;HPM_P2
2022/04/14 00:00:27;;;;;;;6.30;3.45;;;12.30;99.90;;;;;;5112121;28;20047;-65
2022/04/14 00:03:31;;;;;;;13.13;3.55;;;12.20;99.90;;;;;;5112629;28;20066;-64
2022/04/14 00:06:35;;;;;;;7.28;3.33;;;12.00;99.90;;;;;;5112368;28;20387;-64
2022/04/14 00:09:40;;;;;;;4.28;3.03;;;12.00;99.90;;;;;;5112686;28;20061;-64
2022/04/14 00:12:45;;;;;;;6.18;2.88;;;11.90;99.90;;;;;;5112940;28;20042;-64
2022/04/14 00:15:49;;;;;;;6.55;3.05;;;11.90;99.90;;;;;;5112653;28;20394;-64
2022/04/14 00:18:54;;;;;;;3.88;3.10;;;11.90;99.90;;;;;;5112293;28;20061;-64
2022/04/14 00:21:58;;;;;;;8.00;3.45;;;11.90;99.90;;;;;;5112205;28;20391;-64
2022/04/14 00:25:03;;;;;;;8.98;3.90;;;12.00;99.90;;;;;;5112743;28;20509;-64
2022/04/14 00:28:07;;;;;;;6.63;3.20;;;12.10;99.90;;;;;;5111957;28;20047;-64
2022/04/14 00:31:12;;;;;;;7.53;4.03;;;12.10;99.90;;;;;;5112083;28;20077;-64
2022/04/14 00:34:17;;;;;;;7.68;3.78;;;12.10;99.90;;;;;;5112180;28;20042;-64
2022/04/14 00:37:21;;;;;;;6.40;3.50;;;12.10;99.90;;;;;;5111905;28;20042;-64
2022/04/14 00:40:25;;;;;;;4.03;2.75;;;12.10;99.90;;;;;;5111837;28;20046;-64
2022/04/14 00:43:31;;;;;;;7.07;3.53;;;12.10;99.90;;;;;;5111795;28;20038;-64
2022/04/14 00:46:34;;;;;;;6.15;3.35;;;12.10;99.90;;;;;;5111707;28;20050;-64
2022/04/14 00:49:39;;;;;;;7.60;3.63;;;11.90;99.90;;;;;;5111974;28;20236;-64
2022/04/14 00:52:45;;;;;;;9.32;3.47;;;11.80;99.90;;;;;;5111646;28;20047;-65
2022/04/14 00:55:50;;;;;;;6.40;3.45;;;11.70;99.90;;;;;;5111757;28;20050;-65
2022/04/14 00:58:53;;;;;;;6.10;3.10;;;11.50;99.90;;;;;;5111703;28;20058;-64
2022/04/14 01:01:58;;;;;;;6.57;3.88;;;11.40;99.90;;;;;;5110402;28;20486;-64
2022/04/14 01:05:04;;;;;;;6.80;3.65;;;11.40;99.90;;;;;;5111369;28;20497;-64
2022/04/14 01:08:08;;;;;;;7.30;4.15;;;11.30;99.90;;;;;;5110907;28;20050;-65
2022/04/14 01:11:12;;;;;;;7.25;3.53;;;11.20;99.90;;;;;;5111102;28;20046;-64
2022/04/14 01:14:31;;;;;;;8.00;3.65;;;11.20;99.90;;;;;;5111048;28;20039;-64
2022/04/14 01:17:35;;;;;;;5.70;3.40;;;11.10;99.90;;;;;;5110622;28;20320;-64
2022/04/14 01:20:43;;;;;;;8.13;3.65;;;11.10;99.90;;;;;;5110984;28;20046;-64
2022/04/14 01:23:48;;;;;;;6.03;3.70;;;11.10;99.90;;;;;;5110936;28;20117;-65
2022/04/14 01:26:53;;;;;;;9.48;3.95;;;11.10;99.90;;;;;;5110412;28;20027;-64
2022/04/14 01:29:57;;;;;;;7.88;3.50;;;11.10;99.90;;;;;;5110854;28;20417;-64
2022/04/14 01:33:01;;;;;;;4.75;3.22;;;11.10;99.90;;;;;;5111080;28;20051;-65
2022/04/14 01:36:05;;;;;;;6.93;3.53;;;11.20;99.90;;;;;;5110841;28;20050;-64
2022/04/14 01:39:11;;;;;;;6.38;3.55;;;11.20;99.90;;;;;;5111218;28;20050;-64
2022/04/14 01:42:15;;;;;;;8.10;3.60;;;11.30;99.90;;;;;;5110715;28;20046;-64
2022/04/14 01:45:19;;;;;;;8.75;3.88;;;11.30;99.90;;;;;;5110991;28;20533;-64
2022/04/14 01:48:23;;;;;;;4.75;3.38;;;11.30;99.90;;;;;;5110989;28;20406;-65
2022/04/14 01:51:27;;;;;;;8.55;4.10;;;11.20;99.90;;;;;;5110873;28;20509;-65
2022/04/14 01:54:31;;;;;;;7.93;3.50;;;11.10;99.90;;;;;;5111104;28;20058;-64
2022/04/14 01:57:35;;;;;;;5.35;2.63;;;10.90;99.90;;;;;;5110661;28;20046;-65
2022/04/14 02:00:39;;;;;;;5.47;2.50;;;10.80;99.90;;;;;;5109511;28;20055;-65
2022/04/14 02:03:43;;;;;;;7.20;3.03;;;10.80;99.90;;;;;;5110885;28;20047;-64
2022/04/14 02:06:47;;;;;;;4.35;2.15;;;10.70;99.90;;;;;;5110499;28;20046;-64
2022/04/14 02:09:51;;;;;;;6.00;2.25;;;10.70;99.90;;;;;;5110531;28;20410;-65
2022/04/14 02:12:58;;;;;;;5.07;2.28;;;10.60;99.90;;;;;;5110583;28;20046;-64
2022/04/14 02:16:03;;;;;;;3.72;1.92;;;10.60;99.90;;;;;;5110205;28;20055;-64
2022/04/14 02:19:07;;;;;;;6.53;2.33;;;10.50;99.90;;;;;;5110094;28;20046;-65
2022/04/14 02:22:12;;;;;;;3.33;1.63;;;10.50;99.90;;;;;;5110250;28;20056;-64
2022/04/14 02:25:16;;;;;;;3.63;2.10;;;10.50;99.70;;;;;;5110667;28;20054;-64
2022/04/14 02:28:20;;;;;;;3.45;1.42;;;10.50;99.50;;;;;;5109918;28;20042;-64
2022/04/14 02:31:24;;;;;;;4.15;1.88;;;10.40;99.70;;;;;;5110675;28;20055;-64
2022/04/14 02:34:28;;;;;;;1.73;1.30;;;10.30;98.60;;;;;;5110417;28;20050;-64
2022/04/14 02:37:33;;;;;;;2.95;1.63;;;10.30;98.20;;;;;;5110105;28;20054;-64
2022/04/14 02:40:37;;;;;;;2.45;1.73;;;10.30;97.90;;;;;;5110368;28;20059;-64
2022/04/14 02:43:41;;;;;;;3.72;1.65;;;10.40;97.60;;;;;;5110229;28;20046;-64
2022/04/14 02:46:45;;;;;;;1.88;1.40;;;10.30;97.70;;;;;;5110313;28;20477;-64
2022/04/14 02:49:49;;;;;;;3.38;1.77;;;10.30;97.60;;;;;;5110119;28;20058;-65
2022/04/14 02:52:54;;;;;;;2.78;1.70;;;10.30;98.00;;;;;;5110371;28;20662;-65
2022/04/14 02:55:58;;;;;;;2.60;1.80;;;10.30;98.40;;;;;;5110083;28;20062;-65
2022/04/14 02:59:02;;;;;;;9.25;3.33;;;10.20;98.50;;;;;;5109997;28;20055;-64
2022/04/14 03:02:06;;;;;;;4.68;2.50;;;10.10;99.90;;;;;;5109754;28;20043;-65
2022/04/14 03:05:11;;;;;;;2.83;2.10;;;10.20;99.90;;;;;;5110854;28;20047;-64
2022/04/14 03:08:14;;;;;;;6.47;3.03;;;10.20;99.90;;;;;;5110024;28;20043;-64
2022/04/14 03:11:19;;;;;;;4.32;2.80;;;10.20;99.90;;;;;;5110354;28;20058;-64
2022/04/14 03:14:23;;;;;;;6.28;4.15;;;10.00;99.90;;;;;;5110141;28;20556;-64
2022/04/14 03:17:27;;;;;;;6.70;3.80;;;9.90;99.90;;;;;;5109535;28;20050;-64
2022/04/14 03:20:31;;;;;;;7.90;3.70;;;9.80;99.90;;;;;;5109907;28;20051;-64
2022/04/14 03:23:35;;;;;;;10.63;3.58;;;9.70;99.90;;;;;;5110185;28;20039;-64
2022/04/14 03:26:40;;;;;;;5.90;3.13;;;9.60;99.90;;;;;;5112456;28;20042;-64
2022/04/14 03:29:45;;;;;;;7.03;3.20;;;9.70;99.90;;;;;;5113329;28;20038;-64
2022/04/14 03:32:49;;;;;;;6.65;2.92;;;9.70;99.90;;;;;;5113903;28;20044;-64
2022/04/14 03:35:53;;;;;;;5.95;3.22;;;9.80;99.90;;;;;;5113598;28;20032;-64
2022/04/14 03:38:57;;;;;;;3.83;3.25;;;9.90;99.90;;;;;;5113465;28;20052;-64
2022/04/14 03:42:01;;;;;;;9.70;4.43;;;9.90;99.90;;;;;;5113048;28;20032;-64
2022/04/14 03:45:06;;;;;;;4.68;2.83;;;10.00;99.90;;;;;;5113263;28;20042;-64
2022/04/14 03:48:10;;;;;;;5.35;3.45;;;9.90;99.90;;;;;;5112897;28;20332;-65
2022/04/14 03:51:14;;;;;;;6.55;3.45;;;9.90;99.90;;;;;;5113298;28;20043;-65
2022/04/14 03:54:18;;;;;;;10.50;3.08;;;9.90;99.90;;;;;;5112951;28;20055;-65
2022/04/14 03:57:22;;;;;;;7.18;3.13;;;9.80;99.90;;;;;;5112626;28;20046;-64
2022/04/14 04:00:26;;;;;;;7.53;3.33;;;9.70;99.90;;;;;;5112719;28;20040;-64
2022/04/14 04:03:30;;;;;;;20.38;12.48;;;9.60;99.90;;;;;;5112813;28;20053;-64
2022/04/14 04:06:34;;;;;;;11.43;6.70;;;9.50;99.90;;;;;;5112506;28;20051;-65
2022/04/14 04:09:38;;;;;;;7.88;4.03;;;9.50;99.90;;;;;;5112855;28;20039;-64
2022/04/14 04:12:42;;;;;;;7.50;3.88;;;9.50;99.90;;;;;;5112722;28;20387;-64
2022/04/14 04:15:46;;;;;;;5.80;3.42;;;9.70;99.90;;;;;;5112660;28;20074;-64
2022/04/14 04:18:50;;;;;;;6.20;3.42;;;9.70;99.90;;;;;;5112767;28;20047;-65
2022/04/14 04:21:55;;;;;;;8.30;3.83;;;9.50;99.90;;;;;;5112773;28;20044;-64
2022/04/14 04:24:59;;;;;;;6.55;3.88;;;9.30;99.90;;;;;;5112939;28;20047;-64
2022/04/14 04:28:03;;;;;;;7.68;4.28;;;9.10;99.90;;;;;;5111860;28;20028;-64
2022/04/14 04:31:07;;;;;;;6.80;4.57;;;9.00;99.90;;;;;;5112364;28;20047;-64
2022/04/14 04:34:11;;;;;;;10.38;5.43;;;8.80;99.90;;;;;;5112351;28;20051;-64
2022/04/14 04:37:15;;;;;;;15.75;5.68;;;8.70;99.90;;;;;;5110960;28;20105;-65
2022/04/14 04:40:20;;;;;;;7.85;4.72;;;8.60;99.90;;;;;;5112008;28;20425;-65
2022/04/14 04:43:25;;;;;;;9.27;5.03;;;8.60;99.90;;;;;;5112015;28;20047;-65
2022/04/14 04:46:30;;;;;;;8.15;5.32;;;8.70;99.90;;;;;;5111584;28;20038;-64
2022/04/14 04:49:33;;;;;;;11.63;6.32;;;8.70;99.90;;;;;;5112290;28;20450;-64
2022/04/14 04:52:37;;;;;;;6.78;4.07;;;8.70;99.90;;;;;;5111793;28;20051;-65
2022/04/14 04:55:42;;;;;;;4.82;3.65;;;8.80;99.90;;;;;;5112242;28;20394;-65
2022/04/14 04:58:46;;;;;;;6.93;4.22;;;8.90;99.90;;;;;;5111881;28;20036;-64
2022/04/14 05:01:50;;;;;;;7.82;4.35;;;9.10;99.90;;;;;;5111652;28;20032;-65
2022/04/14 05:04:55;;;;;;;8.73;3.60;;;9.20;99.90;;;;;;5111320;28;20043;-63
2022/04/14 05:07:58;;;;;;;4.72;3.20;;;9.30;99.90;;;;;;5111606;28;20413;-65
2022/04/14 05:11:03;;;;;;;6.13;2.97;;;9.40;99.90;;;;;;5111412;28;20047;-64
2022/04/14 05:14:09;;;;;;;7.70;3.38;;;9.60;99.90;;;;;;5111707;28;20035;-64
2022/04/14 05:17:14;;;;;;;9.77;3.78;;;9.60;99.90;;;;;;5111266;28;20390;-64
2022/04/14 05:20:18;;;;;;;8.40;3.35;;;9.60;99.90;;;;;;5111690;28;20043;-64
2022/04/14 05:23:22;;;;;;;6.80;3.75;;;9.50;99.90;;;;;;5111276;28;20053;-65
2022/04/14 05:26:26;;;;;;;13.80;3.75;;;10.10;99.90;;;;;;5111325;28;20047;-64
2022/04/14 05:29:31;;;;;;;12.45;3.70;;;13.60;99.90;;;;;;5111498;28;20047;-65
2022/04/14 05:32:37;;;;;;;7.70;4.50;;;17.00;99.90;;;;;;5110427;28;20051;-65
2022/04/14 05:35:43;;;;;;;8.25;4.45;;;19.20;95.70;;;;;;5111827;28;20035;-64
2022/04/14 05:38:47;;;;;;;5.05;3.08;;;20.20;93.30;;;;;;5112088;28;20042;-65
2022/04/14 05:41:51;;;;;;;4.80;2.95;;;21.10;92.10;;;;;;5111993;28;20047;-64
2022/04/14 05:44:54;;;;;;;5.95;3.40;;;22.40;88.70;;;;;;5111732;28;20379;-64
2022/04/14 05:47:59;;;;;;;6.50;3.38;;;23.10;87.30;;;;;;5110258;28;20042;-65
2022/04/14 05:51:04;;;;;;;7.03;3.72;;;23.50;85.00;;;;;;5110122;28;20039;-63
2022/04/14 05:54:08;;;;;;;6.45;3.80;;;23.70;82.70;;;;;;5109729;28;20034;-65
2022/04/14 05:57:14;;;;;;;5.60;3.72;;;20.10;85.40;;;;;;5110216;28;20039;-65
2022/04/14 06:00:19;;;;;;;6.07;3.75;;;18.40;90.20;;;;;;5106687;28;20402;-65
2022/04/14 06:03:25;;;;;;;5.40;3.40;;;19.50;90.30;;;;;;5104224;28;20541;-64
2022/04/14 06:06:30;;;;;;;5.05;3.63;;;21.90;88.00;;;;;;5101677;28;20030;-64
2022/04/14 06:09:34;;;;;;;4.97;3.00;;;22.70;85.80;;;;;;5106942;28;20046;-64
2022/04/14 06:12:38;;;;;;;6.72;3.63;;;24.10;84.30;;;;;;5100573;28;20059;-64
2022/04/14 06:15:43;;;;;;;5.93;3.50;;;24.80;82.10;;;;;;5107923;28;20076;-65
2022/04/14 06:18:47;;;;;;;6.05;3.58;;;24.90;81.00;;;;;;5107939;28;20050;-64
2022/04/14 06:21:51;;;;;;;6.93;3.53;;;25.20;79.40;;;;;;5108196;28;20054;-65
2022/04/14 06:24:58;;;;;;;6.22;3.17;;;25.90;77.80;;;;;;5102071;28;20058;-65
2022/04/14 06:28:03;;;;;;;7.18;3.53;;;26.30;76.20;;;;;;5088287;28;20051;-62
2022/04/14 06:31:08;;;;;;;6.18;3.60;;;26.70;74.80;;;;;;5101509;28;20046;-65
2022/04/14 06:34:12;;;;;;;17.33;8.82;;;27.00;73.50;;;;;;5097032;28;20043;-65
2022/04/14 06:37:16;;;;;;;22.02;8.40;;;27.60;72.60;;;;;;5097900;28;20391;-62
2022/04/14 06:40:22;;;;;;;16.45;7.53;;;28.00;72.50;;;;;;5105336;28;20140;-62
2022/04/14 06:43:26;;;;;;;6.32;3.88;;;28.70;71.00;;;;;;5107564;28;20039;-65
2022/04/14 06:46:31;;;;;;;7.07;3.95;;;28.70;69.20;;;;;;5097857;28;20048;-65
2022/04/14 06:49:34;;;;;;;5.50;3.60;;;27.10;69.20;;;;;;5098623;28;20046;-64
2022/04/14 06:52:39;;;;;;;6.65;4.20;;;26.90;71.60;;;;;;5099270;28;20047;-64
2022/04/14 06:55:47;;;;;;;6.88;3.70;;;27.20;70.80;;;;;;5105167;28;20106;-64
2022/04/14 06:58:52;;;;;;;8.68;3.88;;;26.90;70.50;;;;;;5106587;28;20043;-64
2022/04/14 07:01:55;;;;;;;4.93;3.40;;;25.30;72.10;;;;;;5108887;28;20054;-64
2022/04/14 07:05:00;;;;;;;8.18;4.65;;;21.60;77.00;;;;;;5102230;28;20047;-64
2022/04/14 07:08:04;;;;;;;10.52;4.28;;;21.80;79.70;;;;;;5103760;28;20051;-64
2022/04/14 07:11:08;;;;;;;10.88;4.72;;;23.20;76.40;;;;;;5107454;28;20043;-64
2022/04/14 07:14:14;;;;;;;13.80;4.80;;;22.90;75.20;;;;;;5103490;28;20035;-64
2022/04/14 07:17:20;;;;;;;9.23;4.15;;;23.50;74.90;;;;;;5109245;28;20027;-64
2022/04/14 07:20:29;;;;;;;8.15;4.15;;;25.70;72.60;;;;;;5108657;28;20055;-65
2022/04/14 07:23:34;;;;;;;9.35;4.60;;;26.90;70.90;;;;;;5109440;28;20038;-65
2022/04/14 07:26:39;;;;;;;6.97;3.47;;;25.90;69.70;;;;;;5108847;28;20031;-64
2022/04/14 07:29:45;;;;;;;10.00;3.60;;;25.80;69.90;;;;;;5106845;28;20051;-64
2022/04/14 07:32:50;;;;;;;6.50;3.38;;;24.50;71.60;;;;;;5109291;28;20124;-65
2022/04/14 07:35:55;;;;;;;7.43;3.75;;;23.80;74.30;;;;;;5097133;28;20038;-65
2022/04/14 07:38:59;;;;;;;9.63;3.53;;;24.50;74.40;;;;;;5105948;28;20059;-70
2022/04/14 07:42:03;;;;;;;7.38;3.70;;;26.50;72.80;;;;;;5111117;28;20141;-70
2022/04/14 07:45:09;;;;;;;6.53;4.57;;;27.60;69.90;;;;;;5113481;28;20046;-71
2022/04/14 07:48:13;;;;;;;11.50;8.95;;;28.90;68.40;;;;;;5113755;28;20383;-71
2022/04/14 07:51:18;;;;;;;9.95;5.65;;;30.40;66.40;;;;;;5113586;28;20070;-71
2022/04/14 07:54:22;;;;;;;5.70;3.85;;;31.10;64.80;;;;;;5113128;28;20046;-70
2022/04/14 07:57:26;;;;;;;7.68;5.63;;;30.60;60.80;;;;;;5112556;28;20386;-70
2022/04/14 08:00:30;;;;;;;14.02;11.65;;;30.10;59.60;;;;;;5112989;28;20501;-70
2022/04/14 08:03:37;;;;;;;7.82;3.38;;;29.50;61.90;;;;;;5112655;28;20047;-70
2022/04/14 08:06:41;;;;;;;6.65;3.03;;;28.80;61.90;;;;;;5112281;28;20047;-70
2022/04/14 08:09:45;;;;;;;5.20;2.70;;;28.40;62.70;;;;;;5112769;28;20051;-70
2022/04/14 08:12:49;;;;;;;5.13;2.45;;;24.50;64.90;;;;;;5111994;28;20522;-70
2022/04/14 08:15:53;;;;;;;4.30;2.78;;;22.40;66.10;;;;;;5112037;28;20418;-70
2022/04/14 08:18:58;;;;;;;3.65;2.58;;;22.20;68.50;;;;;;5112832;28;20394;-70
2022/04/14 08:22:02;;;;;;;3.92;2.45;;;22.40;68.90;;;;;;5112555;28;20035;-70
2022/04/14 08:25:07;;;;;;;6.82;2.80;;;21.80;68.40;;;;;;5112639;28;20505;-70
2022/04/14 08:28:11;;;;;;;4.53;2.28;;;21.60;67.80;;;;;;5112400;28;20058;-70
2022/04/14 08:31:16;;;;;;;7.28;2.78;;;21.60;69.00;;;;;;5112314;28;20051;-69
2022/04/14 08:34:21;;;;;;;5.47;2.70;;;22.60;68.40;;;;;;5112496;28;20042;-70
2022/04/14 08:37:25;;;;;;;4.72;2.60;;;22.50;64.90;;;;;;5112064;28;20043;-70
2022/04/14 08:40:34;;;;;;;3.55;2.22;;;23.80;66.50;;;;;;5111389;28;20038;-70
2022/04/14 08:43:46;;;;;;;5.88;2.45;;;25.10;65.90;;;;;;5111975;28;20046;-70
2022/04/14 08:46:51;;;;;;;3.15;2.10;;;25.70;63.50;;;;;;5111799;28;20399;-70
2022/04/14 08:50:00;;;;;;;5.97;2.53;;;25.40;60.70;;;;;;5111954;28;20054;-70
2022/04/14 08:53:04;;;;;;;6.60;2.50;;;23.60;61.50;;;;;;5111822;28;20042;-70
2022/04/14 08:56:11;;;;;;;3.97;2.42;;;23.00;64.50;;;;;;5111505;28;20050;-70
2022/04/14 08:59:18;;;;;;;4.55;2.30;;;23.10;64.20;;;;;;5111900;28;20117;-70
2022/04/14 09:02:22;;;;;;;7.53;2.78;;;23.20;65.40;;;;;;5111688;28;20046;-70
2022/04/14 09:05:27;;;;;;;7.25;3.10;;;23.40;64.70;;;;;;5105617;28;20047;-70
2022/04/14 09:08:31;;;;;;;7.15;3.15;;;22.20;66.40;;;;;;5106413;28;20027;-70
2022/04/14 09:11:35;;;;;;;5.85;2.70;;;24.20;67.00;;;;;;5105044;28;20646;-71
2022/04/14 09:14:40;;;;;;;5.47;2.50;;;25.50;64.20;;;;;;5103689;28;20042;-71
2022/04/14 09:17:44;;;;;;;5.40;2.53;;;27.70;62.20;;;;;;5106457;28;20509;-70
2022/04/14 09:20:50;;;;;;;6.30;2.28;;;29.40;58.90;;;;;;5105915;28;20390;-70
2022/04/14 09:23:54;;;;;;;4.07;2.22;;;30.60;57.10;;;;;;5104802;28;20066;-71
2022/04/14 09:27:00;;;;;;;2.42;1.58;;;33.60;55.30;;;;;;5107098;28;20035;-71
2022/04/14 09:30:07;;;;;;;5.72;1.50;;;35.10;52.50;;;;;;5103228;28;20047;-72
2022/04/14 09:33:16;;;;;;;3.15;1.80;;;35.00;51.60;;;;;;5101049;28;20042;-72
2022/04/14 09:36:23;;;;;;;8.98;1.95;;;33.00;51.20;;;;;;5101151;28;20051;-64
2022/04/14 09:39:27;;;;;;;2.92;1.88;;;35.20;51.00;;;;;;5106896;28;20054;-64
2022/04/14 09:42:33;;;;;;;3.72;2.13;;;33.90;49.40;;;;;;5111477;28;20043;-64
2022/04/14 09:45:37;;;;;;;5.55;2.13;;;37.10;48.90;;;;;;5100776;28;20063;-64
2022/04/14 09:49:09;;;;;;;4.57;2.22;;;34.30;46.40;;;;;;5106293;28;20043;-72
2022/04/14 09:52:14;;;;;;;5.57;2.33;;;29.50;49.90;;;;;;5103466;28;20046;-73
2022/04/14 09:55:18;;;;;;;4.75;2.15;;;32.00;49.60;;;;;;5107298;28;20047;-65
2022/04/14 09:58:24;;;;;;;6.78;2.20;;;29.60;49.80;;;;;;5107287;28;20042;-65
2022/04/14 10:01:29;;;;;;;3.28;2.03;;;31.20;50.00;;;;;;5104999;28;20043;-63
2022/04/14 10:04:35;;;;;;;5.38;2.28;;;33.20;48.70;;;;;;5107985;28;20046;-66
2022/04/14 10:07:58;;;;;;;4.72;2.00;;;31.00;50.00;;;;;;5102362;28;20374;-65
2022/04/14 10:11:07;;;;;;;2.83;1.70;;;35.40;50.30;;;;;;5109800;28;20062;-65
2022/04/14 10:14:13;;;;;;;4.97;1.92;;;36.20;46.70;;;;;;5105191;28;20059;-64
2022/04/14 10:17:19;;;;;;;2.67;1.77;;;38.80;46.60;;;;;;5110040;28;20039;-72
2022/04/14 10:20:25;;;;;;;6.80;2.10;;;36.20;46.20;;;;;;5106089;28;20516;-65
2022/04/14 10:23:30;;;;;;;3.60;2.00;;;32.80;46.50;;;;;;5102861;28;20043;-72
2022/04/14 10:26:38;;;;;;;5.32;2.55;;;31.60;47.20;;;;;;5099323;28;20047;-65
2022/04/14 10:29:42;;;;;;;3.50;1.75;;;34.20;47.60;;;;;;5095711;28;20039;-65
2022/04/14 10:32:46;;;;;;;2.97;1.70;;;35.90;46.40;;;;;;5103444;28;20043;-65
2022/04/14 10:35:52;;;;;;;4.28;1.67;;;35.20;45.60;;;;;;5105616;28;20481;-66
2022/04/14 10:38:55;;;;;;;2.80;1.75;;;38.10;46.30;;;;;;5106631;28;20042;-66
2022/04/14 10:42:01;;;;;;;4.30;1.73;;;39.60;44.50;;;;;;5110906;28;20050;-66
2022/04/14 10:45:17;;;;;;;2.53;1.45;;;39.60;43.90;;;;;;5108011;28;20518;-65
2022/04/14 10:48:31;;;;;;;2.20;1.40;;;39.00;43.00;;;;;;5095110;28;20042;-66
2022/04/14 10:51:36;;;;;;;2.60;1.40;;;35.10;46.50;;;;;;5109194;28;20387;-73
2022/04/14 10:55:06;;;;;;;2.50;1.50;;;37.90;45.60;;;;;;5107907;28;20148;-72
2022/04/14 10:58:29;;;;;;;;;;;37.60;43.60;;;;;;5107040;28;20481;-73
2022/04/14 11:01:52;;;;;;;2.85;1.48;;;37.60;43.20;;;;;;5107125;28;19911;-65
2022/04/14 11:04:56;;;;;;;4.03;1.73;;;35.70;42.30;;;;;;5107941;28;20050;-66
2022/04/14 11:08:26;;;;;;;1.90;1.33;;;34.30;44.70;;;;;;5111100;28;20066;-65
2022/04/14 11:11:50;;;;;;;;;;;36.30;45.10;;;;;;5100608;28;20043;-65
2022/04/14 11:15:02;;;;;;;8.25;1.65;;;37.50;43.20;;;;;;5108382;28;19915;-72
2022/04/14 11:18:19;;;;;;;2.40;1.50;;;39.10;44.50;;;;;;5103956;28;20047;-73
2022/04/14 11:21:33;;;;;;;3.38;1.73;;;40.40;42.30;;;;;;5108768;28;20045;-65
2022/04/14 11:24:38;;;;;;;2.50;1.40;;;37.00;42.50;;;;;;5097789;28;20517;-65
2022/04/14 11:28:31;;;;;;;2.50;1.38;;;38.40;42.40;;;;;;5105579;28;20034;-72
2022/04/14 11:31:45;;;;;;;3.60;1.70;;;37.90;43.90;;;;;;5107917;28;20054;-72
2022/04/14 11:35:13;;;;;;;3.15;1.50;;;38.20;43.70;;;;;;5109248;28;20042;-72
2022/04/14 11:38:57;;;;;;;4.82;1.58;;;39.10;43.10;;;;;;5110564;28;20039;-72
2022/04/14 11:42:08;;;;;;;4.80;1.73;;;39.00;44.10;;;;;;5106636;28;20051;-65
2022/04/14 11:45:12;;;;;;;3.35;1.60;;;38.30;42.40;;;;;;5110534;28;20043;-72
2022/04/14 11:48:18;;;;;;;5.97;1.60;;;36.10;43.80;;;;;;5109276;28;20053;-72
2022/04/14 11:51:22;;;;;;;3.95;1.85;;;36.40;42.20;;;;;;5109071;28;20042;-65
2022/04/14 11:54:29;;;;;;;4.57;1.98;;;37.20;42.70;;;;;;5109131;28;20046;-74
2022/04/14 11:57:37;;;;;;;2.22;1.60;;;36.90;42.60;;;;;;5111707;28;20046;-72
2022/04/14 12:00:49;;;;;;;3.95;1.70;;;37.60;45.40;;;;;;5111801;28;20043;-74
2022/04/14 12:03:54;;;;;;;2.83;1.50;;;39.10;43.10;;;;;;5102369;28;20051;-72
2022/04/14 12:06:58;;;;;;;3.45;1.80;;;40.60;42.90;;;;;;5110111;28;20046;-72
2022/04/14 12:10:08;;;;;;;3.50;1.40;;;41.60;41.30;;;;;;5107310;28;20047;-72
2022/04/14 12:13:12;;;;;;;3.60;1.30;;;42.10;41.10;;;;;;5102166;28;20047;-72
2022/04/14 12:16:16;;;;;;;5.43;1.58;;;42.00;41.60;;;;;;5103602;28;20050;-73
2022/04/14 12:19:21;;;;;;;3.08;1.48;;;41.80;42.10;;;;;;5094713;28;20129;-73
2022/04/14 12:22:29;;;;;;;3.45;1.58;;;42.70;41.70;;;;;;5106187;28;20042;-72
2022/04/14 12:25:35;;;;;;;4.30;1.67;;;41.10;40.40;;;;;;5101355;28;20055;-73
2022/04/14 12:28:40;;;;;;;3.38;1.40;;;40.80;40.00;;;;;;5104798;28;20402;-72
2022/04/14 12:31:46;;;;;;;5.93;1.50;;;40.10;41.40;;;;;;5104459;28;20047;-72
2022/04/14 12:34:50;;;;;;;2.78;1.48;;;40.60;41.90;;;;;;5105695;28;20046;-73
2022/04/14 12:38:25;;;;;;;1.75;1.20;;;41.10;40.70;;;;;;5109159;28;20057;-73
2022/04/14 12:41:35;;;;;;;4.20;2.08;;;41.80;40.80;;;;;;5112065;28;20054;-74
2022/04/14 12:44:44;;;;;;;5.68;1.48;;;41.10;41.50;;;;;;5111039;28;20450;-73
2022/04/14 12:47:48;;;;;;;3.72;1.50;;;39.50;41.70;;;;;;5110865;28;20047;-74
2022/04/14 12:50:55;;;;;;;3.47;1.40;;;33.90;41.30;;;;;;5111721;28;20038;-71
2022/04/14 12:54:01;;;;;;;3.92;1.60;;;35.00;42.20;;;;;;5107697;28;20058;-74
2022/04/14 12:57:07;;;;;;;3.30;1.30;;;31.40;42.60;;;;;;5110756;28;20043;-72
2022/04/14 13:00:14;;;;;;;3.90;1.60;;;32.60;43.30;;;;;;5108926;28;20046;-72
2022/04/14 13:03:21;;;;;;;3.50;1.20;;;35.40;43.90;;;;;;5106846;28;20046;-72
2022/04/14 13:06:26;;;;;;;3.92;1.48;;;37.40;43.50;;;;;;5102436;28;20038;-72
2022/04/14 13:09:30;;;;;;;2.03;1.45;;;38.90;43.10;;;;;;5104228;28;20047;-73
2022/04/14 13:12:41;;;;;;;8.38;1.88;;;37.30;42.30;;;;;;5106595;28;20065;-72
2022/04/14 13:15:44;;;;;;;;;;;38.20;43.20;;;;;;5107918;28;20046;-72
2022/04/14 13:18:48;;;;;;;3.95;1.45;;;36.20;41.40;;;;;;5108961;28;19923;-73
2022/04/14 13:21:52;;;;;;;2.88;1.63;;;33.40;42.80;;;;;;5090671;28;20511;-73
2022/04/14 13:24:56;;;;;;;3.35;1.77;;;34.80;43.90;;;;;;5110369;28;20062;-75
2022/04/14 13:28:00;;;;;;;2.88;1.30;;;32.90;42.30;;;;;;5111322;28;20046;-72
2022/04/14 13:31:12;;;;;;;3.10;1.98;;;33.40;42.90;;;;;;5051173;28;20422;-55
2022/04/14 13:34:15;;;;;;;6.07;1.58;;;34.00;42.90;;;;;;5046388;28;20053;-53
2022/04/14 13:37:19;;;;;;;5.25;1.50;;;32.50;44.20;;;;;;5047004;28;20572;-52
2022/04/14 13:40:23;;;;;;;3.33;1.60;;;33.10;44.20;;;;;;5046374;28;20029;-52
2022/04/14 13:43:28;;;;;;;5.60;1.80;;;31.60;47.00;;;;;;5046009;28;20037;-52
2022/04/14 13:46:31;;;;;;;4.70;1.85;;;33.00;46.40;;;;;;5037637;28;20033;-52
2022/04/14 13:49:36;;;;;;;3.55;1.50;;;30.70;44.70;;;;;;5044465;28;20033;-55
2022/04/14 13:52:41;;;;;;;10.13;1.95;;;31.00;47.50;;;;;;5039258;28;20037;-47
2022/04/14 13:55:45;;;;;;;2.67;1.52;;;31.70;45.90;;;;;;5041982;28;20404;-56
2022/04/14 13:58:49;;;;;;;4.30;1.77;;;31.40;45.20;;;;;;5039758;28;20029;-52
2022/04/14 14:01:53;;;;;;;5.80;1.70;;;32.30;45.00;;;;;;5033121;28;20033;-49
2022/04/14 14:04:58;;;;;;;5.53;2.17;;;32.30;46.10;;;;;;5036944;22;20042;-51
2022/04/14 14:08:03;;;;;;;3.28;1.77;;;32.00;47.10;;;;;;5000228;28;20378;-51
2022/04/14 14:11:07;;;;;;;2.72;1.70;;;30.10;47.90;;;;;;5004144;28;20038;-55
2022/04/14 14:14:11;;;;;;;5.53;2.00;;;30.50;47.60;;;;;;4997514;28;20037;-59
2022/04/14 14:17:16;;;;;;;5.57;2.33;;;30.70;47.10;;;;;;5003912;28;20038;-53
2022/04/14 14:20:21;;;;;;;3.97;2.20;;;27.90;48.00;;;;;;5000381;28;20038;-53
2022/04/14 14:23:25;;;;;;;3.47;1.95;;;27.90;49.60;;;;;;4999696;28;20042;-55
2022/04/14 14:26:29;;;;;;;6.22;2.00;;;28.50;49.20;;;;;;5002477;28;20034;-51
2022/04/14 14:29:33;;;;;;;5.88;2.53;;;27.60;49.60;;;;;;5000561;28;20046;-52
2022/04/14 14:32:36;;;;;;;5.68;1.90;;;29.00;48.50;;;;;;5000462;28;20030;-51
2022/04/14 14:35:41;;;;;;;4.10;2.08;;;29.20;48.10;;;;;;5003753;28;20034;-51
2022/04/14 14:38:45;;;;;;;3.00;1.73;;;29.00;47.90;;;;;;5003514;28;20034;-53
2022/04/14 14:41:49;;;;;;;3.78;1.92;;;29.30;47.60;;;;;;4990332;28;20504;-51
2022/04/14 14:44:52;;;;;;;5.88;2.20;;;29.00;49.80;;;;;;4992142;28;20034;-53
2022/04/14 14:47:56;;;;;;;6.80;1.85;;;27.90;48.50;;;;;;4989591;28;20039;-52
2022/04/14 14:51:01;;;;;;;5.97;2.00;;;27.10;48.90;;;;;;4982187;28;20046;-55
2022/04/14 14:54:05;;;;;;;5.53;1.60;;;27.60;50.50;;;;;;4990283;28;20042;-51
2022/04/14 14:57:10;;;;;;;6.03;1.83;;;28.40;48.30;;;;;;4992152;28;20038;-52
2022/04/14 15:00:14;;;;;;;2.67;1.48;;;28.80;48.00;;;;;;4978398;28;20046;-51
2022/04/14 15:03:19;;;;;;;4.18;1.80;;;28.50;48.20;;;;;;4991583;28;20042;-52
2022/04/14 15:06:24;;;;;;;11.98;1.92;;;28.60;50.30;;;;;;4992057;28;20042;-53
2022/04/14 15:09:29;;;;;;;6.35;1.60;;;28.80;48.00;;;;;;4972939;28;20051;-51
2022/04/14 15:12:34;;;;;;;5.90;1.65;;;29.00;48.10;;;;;;4972345;28;20027;-52
2022/04/14 15:15:46;;;;;;;3.38;1.77;;;29.20;47.30;;;;;;4988469;28;20039;-57
2022/04/14 15:18:51;;;;;;;2.33;1.35;;;29.20;48.20;;;;;;4991705;28;20034;-51
2022/04/14 15:21:54;;;;;;;14.63;2.40;;;28.90;48.60;;;;;;4989958;28;20030;-53
2022/04/14 15:24:59;;;;;;;2.63;1.88;;;28.70;50.30;;;;;;4991895;28;20417;-55
2022/04/14 15:28:10;;;;;;;3.05;1.80;;;27.30;49.60;;;;;;4972734;28;20525;-51
2022/04/14 15:31:19;;;;;;;4.55;1.95;;;27.00;48.50;;;;;;4972591;28;20072;-51
2022/04/14 15:34:22;;;;;;;3.67;1.90;;;26.50;49.50;;;;;;4983620;28;20042;-51
2022/04/14 15:37:26;;;;;;;3.80;1.95;;;26.00;50.10;;;;;;4992039;28;20042;-50
2022/04/14 15:40:31;;;;;;;5.88;2.03;;;25.80;49.70;;;;;;4989341;28;20042;-55
2022/04/14 15:43:37;;;;;;;3.00;1.75;;;26.20;52.60;;;;;;4991932;28;20046;-54
2022/04/14 15:46:41;;;;;;;3.30;1.75;;;26.50;52.00;;;;;;4990907;28;20038;-55
2022/04/14 15:49:45;;;;;;;3.17;1.70;;;26.70;52.60;;;;;;4989690;28;20038;-50
2022/04/14 15:52:50;;;;;;;7.80;1.75;;;26.80;51.00;;;;;;4989570;28;20030;-54
2022/04/14 15:55:55;;;;;;;4.03;1.77;;;26.80;51.80;;;;;;4990775;28;20510;-56
2022/04/14 15:58:58;;;;;;;3.50;1.25;;;26.70;53.10;;;;;;4990809;28;20030;-53
2022/04/14 16:02:03;;;;;;;5.80;1.58;;;26.50;53.50;;;;;;4990212;28;20525;-57
2022/04/14 16:05:07;;;;;;;3.58;1.65;;;26.20;54.30;;;;;;4991709;28;20042;-51
2022/04/14 16:08:11;;;;;;;3.60;1.20;;;26.10;55.20;;;;;;4991504;28;20042;-55